Time;durP1;ratioP1;P1;durP2;ratioP2;P2;SDS_P1;SDS_P2;PMS_P1;PMS_P2;Temp;Humidity;BMP_temperature;BMP_pressure;BME280_temperature;BME280_humidity;BME280_pressure;Samples;Min_cycle;Max_cycle;Signal;HPM_P1;HPM_P2
2023/04/09 00:01:23;;;;;;;23.80;15.77;;;8.60;67.40;;;;;;4995191;28;20126;-83
2023/04/09 00:03:49;;;;;;;25.48;15.48;;;8.60;67.30;;;;;;4997846;28;20023;-81
2023/04/09 00:06:15;;;;;;;22.92;14.93;;;8.60;67.30;;;;;;5003941;28;20022;-83
2023/04/09 00:08:41;;;;;;;26.10;15.60;;;8.60;67.30;;;;;;5004153;28;20060;-81
2023/04/09 00:11:06;;;;;;;28.35;15.02;;;8.60;67.40;;;;;;5000980;28;20065;-81
2023/04/09 00:13:32;;;;;;;21.17;14.68;;;8.60;67.50;;;;;;5000305;28;20034;-83
2023/04/09 00:15:58;;;;;;;22.50;16.27;;;8.50;67.50;;;;;;5006978;28;20105;-88
2023/04/09 00:18:24;;;;;;;25.75;15.32;;;8.60;67.80;;;;;;5004434;28;20029;-84
2023/04/09 00:20:50;;;;;;;25.65;14.55;;;8.50;67.60;;;;;;5000783;28;20022;-87
2023/04/09 00:23:16;;;;;;;25.05;13.88;;;8.60;67.80;;;;;;4986661;28;20030;-88
2023/04/09 00:25:42;;;;;;;20.85;12.88;;;8.50;67.70;;;;;;5017571;28;20026;-89
2023/04/09 00:28:08;;;;;;;24.08;15.15;;;8.50;67.70;;;;;;5004601;28;20084;-89
2023/04/09 00:30:35;;;;;;;22.10;14.05;;;8.50;67.80;;;;;;4995797;28;20018;-95
2023/04/09 00:33:01;;;;;;;21.55;14.85;;;8.50;67.90;;;;;;4992788;28;20129;-86
2023/04/09 00:35:27;;;;;;;21.73;15.57;;;8.50;67.90;;;;;;5016210;28;20059;-88
2023/04/09 00:37:53;;;;;;;21.60;15.52;;;8.50;67.90;;;;;;4984217;28;20085;-87
2023/04/09 00:40:19;;;;;;;21.15;14.25;;;8.50;68.10;;;;;;5001086;28;20483;-86
2023/04/09 00:42:46;;;;;;;20.20;14.70;;;8.50;68.00;;;;;;5008848;28;20502;-88
2023/04/09 00:45:12;;;;;;;19.02;13.88;;;8.50;68.10;;;;;;5017599;28;20026;-88
2023/04/09 00:47:38;;;;;;;26.98;15.65;;;8.50;68.10;;;;;;5002950;28;20037;-87
2023/04/09 00:50:05;;;;;;;20.17;13.70;;;8.50;68.10;;;;;;5022905;28;20047;-90
2023/04/09 00:52:32;;;;;;;27.42;14.88;;;8.50;68.10;;;;;;4995218;28;20057;-88
2023/04/09 00:55:04;;;;;;;25.35;15.45;;;8.50;68.30;;;;;;5003628;28;20026;-91
2023/04/09 00:57:31;;;;;;;26.05;15.93;;;8.40;68.40;;;;;;5044366;28;20056;-85
2023/04/09 00:59:57;;;;;;;24.08;14.95;;;8.40;68.40;;;;;;5011357;28;20022;-84
2023/04/09 01:02:23;;;;;;;24.08;14.68;;;8.40;68.60;;;;;;5031022;28;20092;-85
2023/04/09 01:04:50;;;;;;;24.45;15.13;;;8.40;68.60;;;;;;5030189;28;20029;-85
2023/04/09 01:07:53;;;;;;;28.00;17.23;;;8.40;68.70;;;;;;5015460;28;20104;-85
2023/04/09 01:10:58;;;;;;;23.65;15.93;;;8.40;68.90;;;;;;4999778;28;20024;-84
2023/04/09 01:13:50;;;;;;;21.58;15.57;;;8.30;68.90;;;;;;4970343;28;20487;-85
2023/04/09 01:16:18;;;;;;;20.80;15.07;;;8.30;69.20;;;;;;5004565;28;20057;-85
2023/04/09 01:19:01;;;;;;;24.55;15.27;;;8.40;75.90;;;;;;5021394;28;20068;-85
2023/04/09 01:21:31;;;;;;;25.75;15.20;;;8.50;76.60;;;;;;4999681;28;20053;-86
2023/04/09 01:24:25;;;;;;;22.65;15.55;;;8.40;76.80;;;;;;5019961;28;20033;-88
2023/04/09 01:27:07;;;;;;;27.95;18.00;;;8.20;69.60;;;;;;5022432;28;20025;-87
2023/04/09 01:29:54;;;;;;;22.10;16.08;;;8.20;69.70;;;;;;5026605;28;20026;-87
2023/04/09 01:32:20;;;;;;;;;;;8.20;69.70;;;;;;5023352;28;20502;-87
2023/04/09 01:34:47;;;;;;;29.35;16.25;;;8.20;69.20;;;;;;5009067;28;19906;-87
2023/04/09 01:37:15;;;;;;;31.52;18.40;;;8.20;69.60;;;;;;5010516;28;20021;-90
2023/04/09 01:39:41;;;;;;;29.30;18.33;;;8.20;69.80;;;;;;5007976;28;20033;-87
2023/04/09 01:42:11;;;;;;;30.23;18.65;;;8.20;69.90;;;;;;5023474;28;20395;-88
2023/04/09 01:44:38;;;;;;;22.52;16.77;;;8.20;70.10;;;;;;5014341;28;20026;-89
2023/04/09 01:47:06;;;;;;;28.30;17.70;;;8.20;70.10;;;;;;5006761;28;20455;-88
2023/04/09 01:49:32;;;;;;;24.23;18.02;;;8.20;70.10;;;;;;5024313;28;20037;-88
2023/04/09 01:51:58;;;;;;;26.35;16.08;;;8.20;70.20;;;;;;5026251;28;20048;-88
2023/04/09 01:54:26;;;;;;;25.25;17.63;;;8.20;70.20;;;;;;5006098;28;20022;-87
2023/04/09 01:56:52;;;;;;;26.98;16.75;;;8.20;70.20;;;;;;5022713;28;20022;-86
2023/04/09 01:59:18;;;;;;;28.90;17.33;;;8.20;70.20;;;;;;5004530;28;20029;-86
2023/04/09 02:01:52;;;;;;;23.48;16.67;;;8.20;70.30;;;;;;5018189;28;20045;-87
2023/04/09 02:04:33;;;;;;;24.30;16.10;;;8.20;70.40;;;;;;5026474;28;20018;-86
2023/04/09 02:07:29;;;;;;;27.63;18.65;;;8.20;70.50;;;;;;5023257;28;20022;-90
2023/04/09 02:09:56;;;;;;;25.60;16.77;;;8.20;70.70;;;;;;5010353;28;20053;-89
2023/04/09 02:12:23;;;;;;;24.83;17.30;;;8.20;70.50;;;;;;5005385;28;20034;-90
2023/04/09 02:14:51;;;;;;;32.00;16.83;;;8.20;70.60;;;;;;5021016;28;20007;-89
2023/04/09 02:17:18;;;;;;;28.98;17.15;;;8.10;70.80;;;;;;5023322;28;20097;-87
2023/04/09 02:19:46;;;;;;;24.50;17.03;;;8.10;70.90;;;;;;4996828;28;20050;-87
2023/04/09 02:22:14;;;;;;;29.25;18.05;;;8.10;70.90;;;;;;5011939;28;20135;-87
2023/04/09 02:24:40;;;;;;;30.60;16.48;;;8.00;71.00;;;;;;5003920;28;20032;-87
2023/04/09 02:27:06;;;;;;;30.13;16.98;;;8.00;71.10;;;;;;4989056;28;20023;-89
2023/04/09 02:29:33;;;;;;;22.73;15.75;;;8.00;71.30;;;;;;4990239;28;20137;-87
2023/04/09 02:31:59;;;;;;;23.15;16.23;;;8.00;71.50;;;;;;5016012;28;20121;-87
2023/04/09 02:34:26;;;;;;;30.08;17.02;;;8.00;71.50;;;;;;5001148;28;20061;-87
2023/04/09 02:36:52;;;;;;;24.33;16.77;;;8.00;71.60;;;;;;4982015;28;20026;-86
2023/04/09 02:39:18;;;;;;;29.08;16.95;;;8.00;71.70;;;;;;5000380;28;20436;-88
2023/04/09 02:41:44;;;;;;;25.42;16.30;;;7.90;71.70;;;;;;5003558;28;20502;-87
2023/04/09 02:44:10;;;;;;;24.05;17.77;;;8.00;71.80;;;;;;5010065;28;20125;-86
2023/04/09 02:46:37;;;;;;;24.35;16.42;;;8.00;71.80;;;;;;5006312;28;20233;-87
2023/04/09 02:49:03;;;;;;;25.13;17.80;;;8.00;72.00;;;;;;5013410;28;20110;-86
2023/04/09 02:51:29;;;;;;;27.70;17.65;;;7.90;71.90;;;;;;5032289;28;20041;-87
2023/04/09 02:53:55;;;;;;;29.58;18.17;;;7.90;72.10;;;;;;5018320;28;20010;-88
2023/04/09 02:56:21;;;;;;;30.05;16.40;;;8.00;72.30;;;;;;5035084;28;20022;-85
2023/04/09 02:58:52;;;;;;;26.55;17.42;;;7.90;72.30;;;;;;5003320;28;20006;-86
2023/04/09 03:01:21;;;;;;;24.15;17.85;;;7.90;72.30;;;;;;5004728;28;20130;-87
2023/04/09 03:03:47;;;;;;;20.77;15.85;;;7.90;72.20;;;;;;4993960;28;20030;-89
2023/04/09 03:06:13;;;;;;;29.77;17.30;;;8.00;72.20;;;;;;5017861;28;20026;-87
2023/04/09 03:08:39;;;;;;;23.88;17.10;;;8.00;72.10;;;;;;5022193;28;20018;-86
2023/04/09 03:11:05;;;;;;;25.15;16.83;;;8.10;72.00;;;;;;5026732;28;20025;-89
2023/04/09 03:13:31;;;;;;;31.10;16.92;;;8.10;71.90;;;;;;5015939;28;20024;-87
2023/04/09 03:15:57;;;;;;;27.50;17.58;;;8.10;71.90;;;;;;5005297;28;20054;-87
2023/04/09 03:18:22;;;;;;;23.63;17.35;;;8.10;71.90;;;;;;5003482;28;20081;-88
2023/04/09 03:20:48;;;;;;;30.50;17.70;;;8.20;71.80;;;;;;5004686;28;20026;-88
2023/04/09 03:23:14;;;;;;;27.83;17.08;;;8.20;71.70;;;;;;5001718;28;20045;-87
2023/04/09 03:25:40;;;;;;;25.70;16.98;;;8.20;71.70;;;;;;4994224;28;20049;-86
2023/04/09 03:28:07;;;;;;;27.33;17.60;;;8.20;71.70;;;;;;5012968;28;20040;-88
2023/04/09 03:30:33;;;;;;;32.77;18.60;;;8.20;71.80;;;;;;5019063;28;20033;-88
2023/04/09 03:32:59;;;;;;;27.63;16.50;;;8.20;72.50;;;;;;5016809;28;20029;-87
2023/04/09 03:35:25;;;;;;;22.52;16.15;;;8.10;71.90;;;;;;5028585;28;20071;-87
2023/04/09 03:37:51;;;;;;;27.27;18.02;;;8.00;72.10;;;;;;5042546;28;20018;-87
2023/04/09 03:40:17;;;;;;;25.02;17.90;;;8.00;72.30;;;;;;5042623;28;20033;-86
2023/04/09 03:42:44;;;;;;;23.95;18.02;;;8.00;72.40;;;;;;5031026;28;20014;-87
2023/04/09 03:45:10;;;;;;;25.77;17.33;;;8.10;72.40;;;;;;5014077;28;20029;-86
2023/04/09 03:47:38;;;;;;;23.55;16.13;;;8.00;72.40;;;;;;5006435;28;20026;-88
2023/04/09 03:50:04;;;;;;;29.15;19.85;;;8.00;72.40;;;;;;5010599;28;20030;-87
2023/04/09 03:52:30;;;;;;;24.17;17.30;;;8.00;72.50;;;;;;5014968;28;20038;-86
2023/04/09 03:54:56;;;;;;;26.10;18.02;;;8.10;72.70;;;;;;5020600;28;20044;-85
2023/04/09 03:57:21;;;;;;;26.15;17.85;;;8.00;72.70;;;;;;5019561;28;20033;-85
2023/04/09 03:59:47;;;;;;;22.92;17.63;;;8.00;72.70;;;;;;5025803;28;20049;-85
2023/04/09 04:02:13;;;;;;;24.80;17.45;;;8.10;72.80;;;;;;5001207;28;20030;-87
2023/04/09 04:04:39;;;;;;;33.10;18.50;;;8.10;72.80;;;;;;5018292;28;20045;-85
2023/04/09 04:07:06;;;;;;;29.48;19.55;;;8.10;72.70;;;;;;5001737;28;20018;-84
2023/04/09 04:09:32;;;;;;;26.73;17.90;;;8.10;72.70;;;;;;4997741;28;20021;-86
2023/04/09 04:11:59;;;;;;;31.88;18.40;;;8.20;72.70;;;;;;5022606;28;20084;-85
2023/04/09 04:14:25;;;;;;;27.63;18.70;;;8.20;72.60;;;;;;5020740;28;20026;-84
2023/04/09 04:16:51;;;;;;;34.20;19.33;;;8.20;72.50;;;;;;5013279;28;20068;-87
2023/04/09 04:19:17;;;;;;;31.13;19.27;;;8.30;72.50;;;;;;5001549;28;20011;-86
2023/04/09 04:21:44;;;;;;;33.75;18.92;;;8.40;72.40;;;;;;5008573;28;20029;-88
2023/04/09 04:24:10;;;;;;;29.27;17.30;;;8.50;72.20;;;;;;5033034;28;20494;-88
2023/04/09 04:26:36;;;;;;;29.33;18.95;;;8.50;72.00;;;;;;5013096;28;20022;-88
2023/04/09 04:29:02;;;;;;;26.58;18.95;;;8.50;71.90;;;;;;4987890;28;20034;-87
2023/04/09 04:31:28;;;;;;;29.58;19.10;;;8.60;72.00;;;;;;5009734;28;20026;-86
2023/04/09 04:33:54;;;;;;;30.08;20.13;;;8.80;71.70;;;;;;5021858;28;20468;-88
2023/04/09 04:36:19;;;;;;;26.73;19.10;;;9.10;71.30;;;;;;5018539;28;20033;-88
2023/04/09 04:38:45;;;;;;;36.80;20.65;;;9.20;70.50;;;;;;5021637;28;20029;-88
2023/04/09 04:41:11;;;;;;;31.10;18.38;;;9.30;70.20;;;;;;5048274;28;20005;-88
2023/04/09 04:43:37;;;;;;;33.33;20.15;;;9.50;69.80;;;;;;5033389;28;20033;-88
2023/04/09 04:46:04;;;;;;;31.48;19.77;;;9.50;69.30;;;;;;5014364;28;20037;-87
2023/04/09 04:48:31;;;;;;;32.85;19.67;;;9.50;69.30;;;;;;5017072;28;20042;-87
2023/04/09 04:50:58;;;;;;;31.48;20.00;;;9.60;69.10;;;;;;5026867;28;20021;-89
2023/04/09 04:53:24;;;;;;;;;;;9.70;68.80;;;;;;5004960;28;20038;-88
2023/04/09 04:55:50;;;;;;;28.52;18.02;;;9.60;69.30;;;;;;4999441;28;19905;-88
2023/04/09 04:58:16;;;;;;;29.13;19.40;;;9.60;68.70;;;;;;4992373;28;20018;-88
2023/04/09 05:00:43;;;;;;;29.38;21.48;;;9.80;68.80;;;;;;5013850;28;20117;-88
2023/04/09 05:03:09;;;;;;;24.77;19.00;;;10.10;68.20;;;;;;5007850;28;20439;-89
2023/04/09 05:05:35;;;;;;;30.90;19.50;;;10.30;67.50;;;;;;4988455;28;20446;-88
2023/04/09 05:08:01;;;;;;;29.15;19.35;;;10.50;66.60;;;;;;5002479;28;20060;-89
2023/04/09 05:10:27;;;;;;;32.88;20.02;;;10.60;66.20;;;;;;5014566;28;20042;-88
2023/04/09 05:12:52;;;;;;;25.25;18.88;;;10.60;66.30;;;;;;5023867;28;20092;-88
2023/04/09 05:15:18;;;;;;;32.03;21.65;;;10.90;66.00;;;;;;5026026;28;20029;-89
2023/04/09 05:17:45;;;;;;;28.90;19.55;;;;;;;;;;4987813;28;20018;-89
2023/04/09 05:20:12;;;;;;;35.80;19.27;;;11.60;90.20;;;;;;4992511;28;20049;-90
2023/04/09 05:22:38;;;;;;;29.45;19.92;;;11.60;68.60;;;;;;4991760;28;20026;-89
2023/04/09 05:25:05;;;;;;;36.55;21.80;;;11.30;69.50;;;;;;4998105;28;20026;-90
2023/04/09 05:27:30;;;;;;;35.70;19.95;;;11.00;66.40;;;;;;5001765;28;20095;-89
2023/04/09 05:29:56;;;;;;;34.90;21.42;;;11.00;66.20;;;;;;5020014;28;20022;-90
2023/04/09 05:32:22;;;;;;;40.00;21.88;;;11.00;66.30;;;;;;4997956;28;20102;-87
2023/04/09 05:34:48;;;;;;;29.45;19.55;;;10.90;66.30;;;;;;5005495;28;20029;-89
2023/04/09 05:37:14;;;;;;;30.35;21.70;;;10.90;66.50;;;;;;5001636;28;20387;-89
2023/04/09 05:39:41;;;;;;;26.85;19.90;;;10.80;66.30;;;;;;5021279;28;20427;-92
2023/04/09 05:42:07;;;;;;;37.95;21.15;;;10.80;66.50;;;;;;5013449;28;20022;-92
2023/04/09 05:44:33;;;;;;;33.05;20.73;;;10.80;66.30;;;;;;5004311;28;20026;-90
2023/04/09 05:47:00;;;;;;;29.65;20.98;;;10.90;66.50;;;;;;5006336;28;20052;-91
2023/04/09 05:49:26;;;;;;;30.63;20.40;;;11.00;66.30;;;;;;5002896;28;20161;-91
2023/04/09 05:51:53;;;;;;;29.67;19.33;;;11.00;65.70;;;;;;5020499;28;20073;-91
2023/04/09 05:54:19;;;;;;;31.42;22.55;;;11.10;65.50;;;;;;5002252;28;20090;-89
2023/04/09 05:56:46;;;;;;;33.60;20.70;;;11.20;65.80;;;;;;4998022;28;20101;-90
2023/04/09 05:59:13;;;;;;;29.77;20.67;;;11.30;65.30;;;;;;5009544;28;20113;-90
2023/04/09 06:01:40;;;;;;;33.53;20.90;;;11.50;65.60;;;;;;5048433;28;20030;-89
2023/04/09 06:04:08;;;;;;;25.98;19.55;;;11.70;66.10;;;;;;5006741;28;20040;-89
2023/04/09 06:06:37;;;;;;;36.55;20.35;;;11.80;63.00;;;;;;5024672;28;20046;-88
2023/04/09 06:09:03;;;;;;;34.25;20.02;;;11.90;62.50;;;;;;5013892;28;20021;-91
2023/04/09 06:11:30;;;;;;;31.88;20.27;;;11.70;62.30;;;;;;5030750;28;20113;-89
2023/04/09 06:13:56;;;;;;;32.13;20.77;;;11.50;62.80;;;;;;5007874;28;20018;-91
2023/04/09 06:16:23;;;;;;;33.28;21.17;;;11.50;63.40;;;;;;5003343;28;20034;-88
2023/04/09 06:18:52;;;;;;;35.25;22.27;;;11.50;63.20;;;;;;5001845;28;20471;-90
2023/04/09 06:21:19;;;;;;;38.50;23.38;;;11.60;63.30;;;;;;5018241;28;20048;-86
2023/04/09 06:23:45;;;;;;;39.15;23.08;;;11.80;63.00;;;;;;5020302;28;20029;-88
2023/04/09 06:26:11;;;;;;;31.10;22.38;;;12.00;62.90;;;;;;5003979;28;20069;-88
2023/04/09 06:28:36;;;;;;;38.92;23.17;;;12.30;62.10;;;;;;5036326;28;20025;-88
2023/04/09 06:31:04;;;;;;;40.55;22.35;;;13.10;61.70;;;;;;5016316;28;20022;-90
2023/04/09 06:33:30;;;;;;;38.95;22.10;;;14.00;59.20;;;;;;5027777;28;20099;-88
2023/04/09 06:35:59;;;;;;;38.53;22.05;;;15.00;57.40;;;;;;4987337;28;20117;-90
2023/04/09 06:38:25;;;;;;;41.65;22.77;;;;;;;;;;5005501;28;20037;-89
2023/04/09 06:40:52;;;;;;;44.47;23.85;;;;;;;;;;5003685;28;20030;-89
2023/04/09 06:43:20;;;;;;;32.67;21.05;;;18.60;70.80;;;;;;5016642;28;20030;-89
2023/04/09 06:45:46;;;;;;;46.08;22.30;;;;;;;;;;5003854;28;20041;-90
2023/04/09 06:48:12;;;;;;;38.28;23.45;;;17.90;71.40;;;;;;4987023;28;20023;-90
2023/04/09 06:50:38;;;;;;;37.72;20.75;;;17.90;71.80;;;;;;5032115;28;20070;-88
2023/04/09 06:53:05;;;;;;;38.13;21.25;;;18.30;71.00;;;;;;5004370;28;20057;-89
2023/04/09 06:55:31;;;;;;;35.28;21.48;;;18.70;48.40;;;;;;4988015;28;20041;-87
2023/04/09 06:57:58;;;;;;;40.40;21.05;;;;;;;;;;5016767;28;20068;-90
2023/04/09 07:00:25;;;;;;;34.00;20.08;;;20.50;45.00;;;;;;4994436;28;20034;-87
2023/04/09 07:02:52;;;;;;;31.90;19.25;;;21.00;44.00;;;;;;5007740;28;20030;-85
2023/04/09 07:05:18;;;;;;;33.60;20.05;;;21.10;42.80;;;;;;5025337;28;20041;-87
2023/04/09 07:07:44;;;;;;;34.05;18.60;;;20.70;43.10;;;;;;5022693;28;20082;-86
2023/04/09 07:10:10;;;;;;;32.38;19.30;;;20.70;43.10;;;;;;4998285;28;20034;-87
2023/04/09 07:12:36;;;;;;;30.38;18.02;;;20.70;42.80;;;;;;5015178;28;20053;-89
2023/04/09 07:15:05;;;;;;;19.80;16.15;;;20.10;42.70;;;;;;5008624;28;20033;-86
2023/04/09 07:17:32;;;;;;;29.20;20.40;;;19.10;43.90;;;;;;4994014;28;20026;-87
2023/04/09 07:19:57;;;;;;;31.23;19.43;;;17.90;45.70;;;;;;5031847;28;20022;-88
2023/04/09 07:22:28;;;;;;;23.33;18.33;;;17.20;47.30;;;;;;5031585;28;20098;-88
2023/04/09 07:24:54;;;;;;;24.65;18.13;;;17.10;47.70;;;;;;5028779;28;20032;-87
2023/04/09 07:27:20;;;;;;;27.42;17.92;;;;;;;;;;5032600;28;20010;-88
2023/04/09 07:29:47;;;;;;;27.33;17.77;;;16.50;48.30;;;;;;5035255;28;20016;-89
2023/04/09 07:32:13;;;;;;;31.75;18.58;;;16.30;49.00;;;;;;4998659;28;20092;-88
2023/04/09 07:34:39;;;;;;;31.27;18.08;;;16.10;49.50;;;;;;5013184;28;20022;-89
2023/04/09 07:37:05;;;;;;;25.25;16.17;;;15.70;50.10;;;;;;4995557;28;20034;-88
2023/04/09 07:39:31;;;;;;;24.85;16.13;;;15.70;50.50;;;;;;5023640;28;20020;-88
2023/04/09 07:42:02;;;;;;;24.90;17.33;;;15.90;50.40;;;;;;5022242;28;20086;-89
2023/04/09 07:44:28;;;;;;;29.70;16.58;;;16.30;49.90;;;;;;5024913;28;20022;-89
2023/04/09 07:46:54;;;;;;;20.75;15.50;;;16.60;49.60;;;;;;5042426;28;20064;-88
2023/04/09 07:49:21;;;;;;;27.98;16.25;;;16.90;48.70;;;;;;5032750;28;20017;-87
2023/04/09 07:51:47;;;;;;;24.97;17.33;;;17.10;48.40;;;;;;5015845;28;20037;-88
2023/04/09 07:54:13;;;;;;;28.15;16.77;;;17.60;48.30;;;;;;5034397;28;20056;-90
2023/04/09 07:56:39;;;;;;;31.77;17.38;;;18.50;47.10;;;;;;5011383;28;20033;-88
2023/04/09 07:59:05;;;;;;;22.88;14.20;;;19.00;45.70;;;;;;5004484;28;20117;-90
2023/04/09 08:01:31;;;;;;;24.33;14.15;;;19.00;44.40;;;;;;5033191;28;20061;-90
2023/04/09 08:04:00;;;;;;;18.20;12.10;;;18.60;44.40;;;;;;5018890;28;20033;-90
2023/04/09 08:06:26;;;;;;;20.13;14.35;;;18.50;44.90;;;;;;5019772;28;20026;-88
2023/04/09 08:08:52;;;;;;;25.02;12.80;;;18.20;45.00;;;;;;5017508;28;20036;-90
2023/04/09 08:11:23;;;;;;;20.52;11.57;;;18.80;44.50;;;;;;5019583;28;20056;-88
2023/04/09 08:14:05;;;;;;;18.67;12.13;;;19.40;43.30;;;;;;5018254;28;20026;-87
2023/04/09 08:16:34;;;;;;;19.55;11.65;;;19.20;42.90;;;;;;5018073;28;20038;-87
2023/04/09 08:19:13;;;;;;;18.83;12.55;;;19.30;42.90;;;;;;5030069;28;20026;-90
2023/04/09 08:21:58;;;;;;;16.92;11.68;;;;;;;;;;5051665;28;20022;-87
2023/04/09 08:24:24;;;;;;;17.48;11.52;;;21.20;41.10;;;;;;5024309;28;20034;-88
2023/04/09 08:26:50;;;;;;;17.75;11.98;;;22.50;39.50;;;;;;5028260;28;20037;-87
2023/04/09 08:29:26;;;;;;;16.15;10.38;;;23.20;38.30;;;;;;5039555;28;20025;-88
2023/04/09 08:31:55;;;;;;;16.02;11.10;;;;;;;;;;5046207;28;20029;-87
2023/04/09 08:34:22;;;;;;;18.38;12.32;;;23.80;35.40;;;;;;5011335;28;20041;-88
2023/04/09 08:36:48;;;;;;;16.70;12.77;;;22.50;37.40;;;;;;5009242;28;20026;-88
2023/04/09 08:39:18;;;;;;;22.85;12.85;;;22.20;38.70;;;;;;5016130;28;20029;-86
2023/04/09 08:41:47;;;;;;;18.45;10.88;;;23.10;38.10;;;;;;4987311;28;20057;-87
2023/04/09 08:44:13;;;;;;;15.48;11.68;;;23.60;36.50;;;;;;5047339;28;20060;-89
2023/04/09 08:46:42;;;;;;;17.55;12.13;;;23.70;36.20;;;;;;4998666;28;20075;-91
2023/04/09 08:49:09;;;;;;;19.73;11.48;;;23.90;36.30;;;;;;5009900;28;20033;-84
2023/04/09 08:51:36;;;;;;;19.15;11.40;;;25.30;36.50;;;;;;5009068;28;20046;-86
2023/04/09 08:54:02;;;;;;;17.95;12.27;;;;;;;;;;5032498;28;20018;-86
2023/04/09 08:56:30;;;;;;;14.87;12.30;;;26.30;33.50;;;;;;5023377;28;20037;-90
2023/04/09 08:58:56;;;;;;;16.10;11.32;;;26.80;33.80;;;;;;5037609;28;20029;-88
2023/04/09 09:01:39;;;;;;;13.20;11.25;;;27.50;32.90;;;;;;5020841;28;20065;-89
2023/04/09 09:04:07;;;;;;;17.52;12.18;;;26.70;32.50;;;;;;5009283;28;20036;-88
2023/04/09 09:06:41;;;;;;;15.63;11.73;;;;;;;;;;5022456;28;20042;-85
2023/04/09 09:09:17;;;;;;;17.95;11.93;;;28.20;33.30;;;;;;5019716;28;20053;-85
2023/04/09 09:11:50;;;;;;;;;;;28.70;32.60;;;;;;5014666;28;20022;-88
2023/04/09 09:14:19;;;;;;;12.65;10.13;;;28.30;32.70;;;;;;5038033;28;19922;-88
2023/04/09 09:17:07;;;;;;;14.10;10.45;;;26.70;31.70;;;;;;5023668;28;20080;-86
2023/04/09 09:19:33;;;;;;;16.67;11.82;;;25.00;33.30;;;;;;5009590;28;20014;-89
2023/04/09 09:22:11;;;;;;;18.38;12.50;;;24.10;34.40;;;;;;5010126;28;20476;-88
2023/04/09 09:24:51;;;;;;;20.70;12.85;;;23.30;35.40;;;;;;5021819;28;20022;-91
2023/04/09 09:27:41;;;;;;;11.98;10.35;;;22.90;36.40;;;;;;5018891;28;20464;-92
2023/04/09 09:30:19;;;;;;;18.90;11.32;;;22.60;36.50;;;;;;5004986;28;20037;-92
2023/04/09 09:32:46;;;;;;;15.55;10.80;;;23.30;36.60;;;;;;5020874;28;20046;-90
2023/04/09 09:35:12;;;;;;;16.73;12.23;;;24.80;34.90;;;;;;5017724;28;20018;-88
2023/04/09 09:37:39;;;;;;;19.10;11.95;;;24.70;34.20;;;;;;5008251;28;20112;-90
2023/04/09 09:40:05;;;;;;;;;;;24.20;34.50;;;;;;5016858;28;20105;-91
2023/04/09 09:42:32;;;;;;;14.25;11.00;;;24.30;35.50;;;;;;5026473;28;19913;-93
2023/04/09 09:44:58;;;;;;;;;;;25.40;34.10;;;;;;5001734;28;20098;-84
2023/04/09 09:47:26;;;;;;;13.95;10.63;;;25.50;34.60;;;;;;5022440;28;19929;-91
2023/04/09 09:49:55;;;;;;;14.30;11.52;;;24.60;34.10;;;;;;5026773;28;20036;-90
2023/04/09 09:52:29;;;;;;;15.25;10.68;;;24.10;34.90;;;;;;5021150;28;20040;-92
2023/04/09 09:54:59;;;;;;;19.17;10.30;;;24.00;35.00;;;;;;5007450;28;20022;-84
2023/04/09 09:57:27;;;;;;;18.30;11.93;;;23.10;35.50;;;;;;5007234;28;20018;-84
2023/04/09 09:59:59;;;;;;;17.70;12.10;;;22.80;36.70;;;;;;4999061;28;20029;-89
2023/04/09 10:02:30;;;;;;;17.10;12.32;;;23.80;35.70;;;;;;5021746;28;20034;-89
2023/04/09 10:04:59;;;;;;;18.58;12.73;;;25.00;34.60;;;;;;5017500;28;20022;-90
2023/04/09 10:07:33;;;;;;;20.17;11.88;;;26.10;33.80;;;;;;5000716;28;20026;-90
2023/04/09 10:10:01;;;;;;;19.50;12.82;;;26.40;32.70;;;;;;5000774;28;20026;-93
2023/04/09 10:12:44;;;;;;;22.05;12.73;;;26.00;33.80;;;;;;5018993;28;20022;-92
2023/04/09 10:15:10;;;;;;;22.98;12.13;;;27.20;33.00;;;;;;4996908;28;20042;-87
2023/04/09 10:17:37;;;;;;;16.33;10.98;;;27.10;32.00;;;;;;5017232;28;20090;-89
2023/04/09 10:20:16;;;;;;;21.58;11.50;;;27.60;32.20;;;;;;5030532;28;20031;-89
2023/04/09 10:22:47;;;;;;;16.65;10.65;;;28.80;31.60;;;;;;5038296;28;20010;-86
2023/04/09 10:25:15;;;;;;;11.65;10.45;;;29.00;30.40;;;;;;5051112;28;20114;-87
2023/04/09 10:27:47;;;;;;;15.13;11.02;;;27.70;30.40;;;;;;5019914;28;20024;-91
2023/04/09 10:30:43;;;;;;;17.80;11.68;;;25.60;31.20;;;;;;5004182;28;20026;-93
2023/04/09 10:33:20;;;;;;;18.85;12.48;;;23.30;33.90;;;;;;5010149;28;20093;-92
2023/04/09 10:35:47;;;;;;;16.27;12.35;;;21.10;37.10;;;;;;5025968;28;20028;-89
2023/04/09 10:38:14;;;;;;;14.65;10.93;;;20.30;38.50;;;;;;5012358;28;20098;-89
2023/04/09 10:40:52;;;;;;;13.23;11.63;;;19.70;39.10;;;;;;5008814;28;20034;-90
2023/04/09 10:43:23;;;;;;;18.17;12.00;;;19.10;39.90;;;;;;5042909;28;20081;-92
2023/04/09 10:45:52;;;;;;;20.15;12.80;;;;;;;;;;5005713;28;20034;-88
2023/04/09 10:48:19;;;;;;;16.23;13.65;;;;;;;;;;5022399;28;20085;-90
2023/04/09 10:50:55;;;;;;;22.30;13.75;;;18.50;40.50;;;;;;4991677;28;20038;-87
2023/04/09 10:53:24;;;;;;;20.05;15.02;;;18.20;42.00;;;;;;5035879;28;20037;-91
2023/04/09 10:56:00;;;;;;;19.60;15.27;;;17.80;42.90;;;;;;5037231;28;20013;-91
2023/04/09 10:58:26;;;;;;;15.85;13.23;;;17.70;43.30;;;;;;5037823;28;20017;-86
2023/04/09 11:01:01;;;;;;;14.80;11.82;;;17.60;43.10;;;;;;5039592;28;20062;-86
2023/04/09 11:03:32;;;;;;;17.92;12.43;;;17.10;43.60;;;;;;5025422;28;20030;-92
2023/04/09 11:06:09;;;;;;;22.08;14.23;;;16.80;44.30;;;;;;5019416;28;20090;-90
2023/04/09 11:08:52;;;;;;;16.38;14.18;;;17.00;45.00;;;;;;5037578;28;20073;-93
2023/04/09 11:11:25;;;;;;;21.48;14.35;;;17.30;44.50;;;;;;5020817;28;20042;-91
2023/04/09 11:14:03;;;;;;;21.40;14.68;;;17.50;44.10;;;;;;5022232;28;20034;-89
2023/04/09 11:16:54;;;;;;;17.85;14.38;;;17.40;44.20;;;;;;5040142;28;20093;-93
2023/04/09 11:19:20;;;;;;;19.65;13.68;;;17.50;44.00;;;;;;5001662;28;20477;-92
2023/04/09 11:21:49;;;;;;;16.30;13.00;;;17.60;43.80;;;;;;4991994;28;20068;-88
2023/04/09 11:24:18;;;;;;;16.17;13.27;;;17.80;43.50;;;;;;5018125;28;20018;-87
2023/04/09 11:26:47;;;;;;;18.85;12.77;;;18.00;43.50;;;;;;5002246;28;20022;-91
2023/04/09 11:29:15;;;;;;;17.73;14.52;;;18.10;42.90;;;;;;4996941;28;20415;-91
2023/04/09 11:31:44;;;;;;;17.47;13.00;;;17.90;43.30;;;;;;5031984;28;20045;-88
2023/04/09 11:34:13;;;;;;;22.48;13.23;;;17.70;43.10;;;;;;5036562;28;20026;-93
2023/04/09 11:36:40;;;;;;;18.42;13.10;;;17.60;43.40;;;;;;5022940;28;20034;-90
2023/04/09 11:39:06;;;;;;;20.00;13.05;;;17.50;43.50;;;;;;5021108;28;20053;-91
2023/04/09 11:41:36;;;;;;;21.98;12.80;;;17.50;43.40;;;;;;5003759;28;20077;-90
2023/04/09 11:44:08;;;;;;;18.55;13.38;;;17.50;43.70;;;;;;5017942;28;20031;-88
2023/04/09 11:46:38;;;;;;;18.35;13.68;;;17.50;43.80;;;;;;4991923;28;20027;-86
2023/04/09 11:49:04;;;;;;;24.67;13.65;;;17.50;43.90;;;;;;5020572;28;20030;-83
2023/04/09 11:51:31;;;;;;;18.42;12.55;;;17.40;44.10;;;;;;5016938;28;20243;-84
2023/04/09 11:54:07;;;;;;;20.60;12.35;;;17.30;44.00;;;;;;4976765;28;20049;-81
2023/04/09 11:56:35;;;;;;;18.70;12.68;;;17.20;44.00;;;;;;5010241;28;20037;-82
2023/04/09 11:59:02;;;;;;;27.27;14.77;;;16.90;43.90;;;;;;5014963;28;20147;-80
2023/04/09 12:01:32;;;;;;;16.58;11.98;;;16.70;44.30;;;;;;5019750;28;20042;-86
2023/04/09 12:03:59;;;;;;;13.82;12.35;;;16.60;44.30;;;;;;4996450;28;20511;-81
2023/04/09 12:06:25;;;;;;;20.20;12.63;;;16.50;44.10;;;;;;5009439;28;20022;-80
2023/04/09 12:08:58;;;;;;;28.05;16.73;;;16.50;44.20;;;;;;5014149;28;20038;-84
2023/04/09 12:11:30;;;;;;;20.58;14.30;;;16.40;44.60;;;;;;5016180;28;20034;-81
2023/04/09 12:14:04;;;;;;;19.88;13.75;;;16.50;44.70;;;;;;5006638;28;20022;-87
2023/04/09 12:16:33;;;;;;;17.45;13.23;;;16.60;45.10;;;;;;5010199;28;20072;-87
2023/04/09 12:19:02;;;;;;;16.02;11.48;;;16.40;44.50;;;;;;5016942;28;20006;-89
2023/04/09 12:21:51;;;;;;;18.67;12.40;;;16.20;44.80;;;;;;5024982;28;20026;-89
2023/04/09 12:24:20;;;;;;;17.20;12.35;;;16.10;45.10;;;;;;5017361;28;20042;-80
2023/04/09 12:26:47;;;;;;;16.35;13.15;;;16.10;45.20;;;;;;5009793;28;20162;-81
2023/04/09 12:29:18;;;;;;;16.27;12.33;;;16.00;45.10;;;;;;5005197;28;20029;-82
2023/04/09 12:31:45;;;;;;;17.30;12.88;;;16.10;45.20;;;;;;5012968;28;20811;-82
2023/04/09 12:34:12;;;;;;;22.53;14.27;;;16.00;45.30;;;;;;5015938;28;20034;-81
2023/04/09 12:36:40;;;;;;;19.08;12.90;;;16.20;45.50;;;;;;5012739;28;20030;-83
2023/04/09 12:39:07;;;;;;;14.77;11.55;;;16.30;45.20;;;;;;5017731;28;20035;-85
2023/04/09 12:41:33;;;;;;;;;;;16.40;45.10;;;;;;5010472;28;20049;-82
2023/04/09 12:43:59;;;;;;;17.30;13.00;;;16.40;44.90;;;;;;5027293;28;19934;-82